Wausau Downtown Airport
KAUW : now visible

Airfield :











YOU CAN JOIN US ON...

 
LOGIN :

Register | Disclaimer

   EN    FR    IT 

 









Legend :    VFR   Marginal VFR   IFR   Intensive IFR   Very Intensive IFR
Visi :
Ceiling :
>= 8 km
>= 3000ft
5 to 8 km
1000 to 3000 ft
1500m to 5 km
500 to 1000 ft
800 to 1500m
200 to 500 ft
< 800m
< 200 ft
Symbols :   Thunderstorms  Fog  Heavy snow  Heavy precipitations  Wind > 20 kt






- Airport Elevation : 1201 ft


KAUW - Wausau Downtown

CURRENT METAR :
  • 172154Z AUTO 12010KT 10SM OVC014 M07/M09 A3041 RMK AO2 SLP334 T10671094

EXPIRED METARs :
  • 172139Z AUTO 12009KT 10SM OVC014 M07/M09 A3042 RMK AO2 T10671094
  • 172101Z AUTO 14008KT 10SM BKN016 OVC100 M07/M10 A3045 RMK AO2 T10671100
  • 172054Z AUTO 14007KT 10SM SCT016 OVC100 M07/M10 A3045 RMK AO2 SLP347 T10721100 56034
  • 172034Z AUTO 13008KT 10SM FEW014 SCT020 OVC100 M07/M10 A3044 RMK AO2 T10721100
  • 171954Z AUTO 14009KT 10SM OVC016 M07/M11 A3046 RMK AO2 SLP349 T10721106
  • 171926Z AUTO 15008KT 10SM BKN015 M08/M11 A3047 RMK AO2 T10781111

TAF KAUW
Valid from the 17 at 21:00 until the 18 at 18:00 UTC


172106Z 1721/1818 14009G17KT P6SM BKN016
FM172300 14010G18KT 3SM -SN BKN014
FM180000 14014G24KT 1 1/2SM -SN OVC012 WS019/14040KT
TEMPO 1800/1804 1/2SM SN FZFG BKN007
FM181200 11007KT 1SM -SN BKN007
FM181600 20008KT 3SM -SN BKN015



MET'MAP, your aeronautical weather chart ! - Copyright ORBIFLY December 2007 - Disclaimer

ORBIFLY MET'MAP TEAM :

Programming & Development : Alexandra Zaïnal
Concept & original design : Baudouin d'Aumeries
Assistance for programming : Marc-Olivier Méhu
Technical & hardware support : Manuel Goepfert

Contact : metmap@orbifly.com




SOURCES & CREDITS :

   NOAA       Earth
Advisory